sensor_id;sensor_type;location;lat;lon;timestamp;P1;durP1;ratioP1;P2;durP2;ratioP2
56718;SDS011;42597;40.636;0.278;2023-12-20T00:00:24;2.95;;;1.55;;
56718;SDS011;42597;40.636;0.278;2023-12-20T00:02:50;3.78;;;2.05;;
56718;SDS011;42597;40.636;0.278;2023-12-20T00:05:15;5.90;;;2.47;;
56718;SDS011;42597;40.636;0.278;2023-12-20T00:07:41;4.30;;;2.53;;
56718;SDS011;42597;40.636;0.278;2023-12-20T00:10:07;5.25;;;2.60;;
56718;SDS011;42597;40.636;0.278;2023-12-20T00:12:33;5.53;;;3.35;;
56718;SDS011;42597;40.636;0.278;2023-12-20T00:14:58;7.50;;;4.22;;
56718;SDS011;42597;40.636;0.278;2023-12-20T00:17:24;5.53;;;2.72;;
56718;SDS011;42597;40.636;0.278;2023-12-20T00:19:49;5.30;;;2.50;;
56718;SDS011;42597;40.636;0.278;2023-12-20T00:22:15;3.65;;;1.70;;
56718;SDS011;42597;40.636;0.278;2023-12-20T00:24:40;4.60;;;2.47;;
56718;SDS011;42597;40.636;0.278;2023-12-20T00:27:06;4.38;;;2.42;;
56718;SDS011;42597;40.636;0.278;2023-12-20T00:29:31;8.15;;;4.88;;
56718;SDS011;42597;40.636;0.278;2023-12-20T00:31:57;9.13;;;3.58;;
56718;SDS011;42597;40.636;0.278;2023-12-20T00:34:23;8.35;;;3.67;;
56718;SDS011;42597;40.636;0.278;2023-12-20T00:36:48;5.28;;;2.40;;
56718;SDS011;42597;40.636;0.278;2023-12-20T00:39:14;7.80;;;3.85;;
56718;SDS011;42597;40.636;0.278;2023-12-20T00:41:39;11.68;;;6.32;;
56718;SDS011;42597;40.636;0.278;2023-12-20T00:44:05;4.85;;;2.38;;
56718;SDS011;42597;40.636;0.278;2023-12-20T00:46:30;4.15;;;2.05;;
56718;SDS011;42597;40.636;0.278;2023-12-20T00:48:56;6.47;;;2.33;;
56718;SDS011;42597;40.636;0.278;2023-12-20T00:51:22;3.30;;;1.98;;
56718;SDS011;42597;40.636;0.278;2023-12-20T00:53:49;3.80;;;1.73;;
56718;SDS011;42597;40.636;0.278;2023-12-20T00:56:15;3.72;;;1.77;;
56718;SDS011;42597;40.636;0.278;2023-12-20T00:58:41;7.32;;;2.80;;
56718;SDS011;42597;40.636;0.278;2023-12-20T01:01:06;3.55;;;1.77;;
56718;SDS011;42597;40.636;0.278;2023-12-20T01:03:32;5.90;;;3.08;;
56718;SDS011;42597;40.636;0.278;2023-12-20T01:05:57;9.63;;;1.65;;
56718;SDS011;42597;40.636;0.278;2023-12-20T01:08:23;5.40;;;2.30;;
56718;SDS011;42597;40.636;0.278;2023-12-20T01:10:49;3.40;;;1.90;;
56718;SDS011;42597;40.636;0.278;2023-12-20T01:13:14;4.13;;;2.40;;
56718;SDS011;42597;40.636;0.278;2023-12-20T01:15:40;2.88;;;1.52;;
56718;SDS011;42597;40.636;0.278;2023-12-20T01:18:06;4.07;;;2.00;;
56718;SDS011;42597;40.636;0.278;2023-12-20T01:20:32;4.03;;;1.98;;
56718;SDS011;42597;40.636;0.278;2023-12-20T01:22:57;2.67;;;1.42;;
56718;SDS011;42597;40.636;0.278;2023-12-20T01:25:23;3.70;;;2.10;;
56718;SDS011;42597;40.636;0.278;2023-12-20T01:27:48;3.50;;;1.98;;
56718;SDS011;42597;40.636;0.278;2023-12-20T01:30:14;4.13;;;2.28;;
56718;SDS011;42597;40.636;0.278;2023-12-20T01:32:40;2.60;;;1.52;;
56718;SDS011;42597;40.636;0.278;2023-12-20T01:35:05;3.63;;;1.90;;
56718;SDS011;42597;40.636;0.278;2023-12-20T01:37:31;7.10;;;3.42;;
56718;SDS011;42597;40.636;0.278;2023-12-20T01:39:57;3.78;;;1.55;;
56718;SDS011;42597;40.636;0.278;2023-12-20T01:42:23;2.70;;;1.75;;
56718;SDS011;42597;40.636;0.278;2023-12-20T01:44:49;7.50;;;2.45;;
56718;SDS011;42597;40.636;0.278;2023-12-20T01:47:15;4.88;;;2.75;;
56718;SDS011;42597;40.636;0.278;2023-12-20T01:49:40;5.57;;;2.28;;
56718;SDS011;42597;40.636;0.278;2023-12-20T01:52:06;4.20;;;1.92;;
56718;SDS011;42597;40.636;0.278;2023-12-20T01:54:33;5.05;;;2.72;;
56718;SDS011;42597;40.636;0.278;2023-12-20T01:57:01;2.97;;;2.00;;
56718;SDS011;42597;40.636;0.278;2023-12-20T01:59:28;4.63;;;1.75;;
56718;SDS011;42597;40.636;0.278;2023-12-20T02:01:54;4.03;;;2.20;;
56718;SDS011;42597;40.636;0.278;2023-12-20T02:04:20;4.15;;;2.42;;
56718;SDS011;42597;40.636;0.278;2023-12-20T02:06:46;4.80;;;1.88;;
56718;SDS011;42597;40.636;0.278;2023-12-20T02:09:12;4.45;;;2.00;;
56718;SDS011;42597;40.636;0.278;2023-12-20T02:11:38;8.20;;;2.50;;
56718;SDS011;42597;40.636;0.278;2023-12-20T02:14:03;2.75;;;1.48;;
56718;SDS011;42597;40.636;0.278;2023-12-20T02:16:30;2.13;;;1.08;;
56718;SDS011;42597;40.636;0.278;2023-12-20T02:18:55;4.57;;;1.80;;
56718;SDS011;42597;40.636;0.278;2023-12-20T02:21:39;1.63;;;1.08;;
56718;SDS011;42597;40.636;0.278;2023-12-20T02:24:04;4.53;;;1.45;;
56718;SDS011;42597;40.636;0.278;2023-12-20T02:26:31;2.92;;;1.25;;
56718;SDS011;42597;40.636;0.278;2023-12-20T02:28:58;3.13;;;1.52;;
56718;SDS011;42597;40.636;0.278;2023-12-20T02:31:24;3.55;;;1.63;;
56718;SDS011;42597;40.636;0.278;2023-12-20T02:33:50;1.95;;;0.98;;
56718;SDS011;42597;40.636;0.278;2023-12-20T02:36:15;3.63;;;1.23;;
56718;SDS011;42597;40.636;0.278;2023-12-20T02:38:41;1.58;;;1.13;;
56718;SDS011;42597;40.636;0.278;2023-12-20T02:41:06;2.50;;;1.20;;
56718;SDS011;42597;40.636;0.278;2023-12-20T02:43:32;3.72;;;1.42;;
56718;SDS011;42597;40.636;0.278;2023-12-20T02:45:57;3.30;;;1.85;;
56718;SDS011;42597;40.636;0.278;2023-12-20T02:48:23;1.38;;;1.05;;
56718;SDS011;42597;40.636;0.278;2023-12-20T02:50:49;2.53;;;1.27;;
56718;SDS011;42597;40.636;0.278;2023-12-20T02:53:14;3.85;;;1.77;;
56718;SDS011;42597;40.636;0.278;2023-12-20T02:55:40;2.45;;;1.20;;
56718;SDS011;42597;40.636;0.278;2023-12-20T02:58:05;3.35;;;1.45;;
56718;SDS011;42597;40.636;0.278;2023-12-20T03:00:31;3.60;;;0.98;;
56718;SDS011;42597;40.636;0.278;2023-12-20T03:02:57;2.30;;;1.13;;
56718;SDS011;42597;40.636;0.278;2023-12-20T03:05:24;1.38;;;1.10;;
56718;SDS011;42597;40.636;0.278;2023-12-20T03:07:50;2.88;;;1.08;;
56718;SDS011;42597;40.636;0.278;2023-12-20T03:10:16;3.20;;;1.25;;
56718;SDS011;42597;40.636;0.278;2023-12-20T03:12:42;2.45;;;1.42;;
56718;SDS011;42597;40.636;0.278;2023-12-20T03:15:07;3.03;;;1.23;;
56718;SDS011;42597;40.636;0.278;2023-12-20T03:17:33;5.82;;;1.10;;
56718;SDS011;42597;40.636;0.278;2023-12-20T03:19:59;1.85;;;1.20;;
56718;SDS011;42597;40.636;0.278;2023-12-20T03:22:24;3.60;;;1.00;;
56718;SDS011;42597;40.636;0.278;2023-12-20T03:24:50;2.72;;;1.40;;
56718;SDS011;42597;40.636;0.278;2023-12-20T03:27:15;2.88;;;1.15;;
56718;SDS011;42597;40.636;0.278;2023-12-20T03:29:41;3.10;;;1.02;;
56718;SDS011;42597;40.636;0.278;2023-12-20T03:32:06;2.60;;;1.20;;
56718;SDS011;42597;40.636;0.278;2023-12-20T03:34:33;1.83;;;0.93;;
56718;SDS011;42597;40.636;0.278;2023-12-20T03:36:59;2.95;;;1.10;;
56718;SDS011;42597;40.636;0.278;2023-12-20T03:39:24;1.38;;;1.00;;
56718;SDS011;42597;40.636;0.278;2023-12-20T03:41:50;9.35;;;1.63;;
56718;SDS011;42597;40.636;0.278;2023-12-20T03:44:15;1.67;;;1.00;;
56718;SDS011;42597;40.636;0.278;2023-12-20T03:46:41;2.85;;;1.20;;
56718;SDS011;42597;40.636;0.278;2023-12-20T03:49:07;2.85;;;0.80;;
56718;SDS011;42597;40.636;0.278;2023-12-20T03:51:32;4.38;;;1.30;;
56718;SDS011;42597;40.636;0.278;2023-12-20T03:53:58;3.40;;;0.65;;
56718;SDS011;42597;40.636;0.278;2023-12-20T03:56:23;2.05;;;1.15;;
56718;SDS011;42597;40.636;0.278;2023-12-20T03:58:49;0.82;;;0.57;;
56718;SDS011;42597;40.636;0.278;2023-12-20T04:01:14;1.48;;;0.95;;
56718;SDS011;42597;40.636;0.278;2023-12-20T04:03:40;4.45;;;1.02;;
56718;SDS011;42597;40.636;0.278;2023-12-20T04:06:05;1.50;;;0.60;;
56718;SDS011;42597;40.636;0.278;2023-12-20T04:08:31;4.22;;;1.50;;
56718;SDS011;42597;40.636;0.278;2023-12-20T04:10:57;2.95;;;1.30;;
56718;SDS011;42597;40.636;0.278;2023-12-20T04:13:22;2.20;;;1.00;;
56718;SDS011;42597;40.636;0.278;2023-12-20T04:15:48;14.25;;;2.17;;
56718;SDS011;42597;40.636;0.278;2023-12-20T04:18:16;1.65;;;0.90;;
56718;SDS011;42597;40.636;0.278;2023-12-20T04:20:41;1.67;;;0.90;;
56718;SDS011;42597;40.636;0.278;2023-12-20T04:23:07;9.80;;;1.38;;
56718;SDS011;42597;40.636;0.278;2023-12-20T04:25:32;1.60;;;1.00;;
56718;SDS011;42597;40.636;0.278;2023-12-20T04:27:58;4.18;;;1.17;;
56718;SDS011;42597;40.636;0.278;2023-12-20T04:30:23;3.90;;;0.93;;
56718;SDS011;42597;40.636;0.278;2023-12-20T04:32:49;2.17;;;0.60;;
56718;SDS011;42597;40.636;0.278;2023-12-20T04:35:15;1.95;;;0.93;;
56718;SDS011;42597;40.636;0.278;2023-12-20T04:37:40;2.22;;;0.82;;
56718;SDS011;42597;40.636;0.278;2023-12-20T04:40:06;1.90;;;1.15;;
56718;SDS011;42597;40.636;0.278;2023-12-20T04:42:33;1.25;;;0.80;;
56718;SDS011;42597;40.636;0.278;2023-12-20T04:44:58;3.50;;;1.10;;
56718;SDS011;42597;40.636;0.278;2023-12-20T04:47:24;2.10;;;1.02;;
56718;SDS011;42597;40.636;0.278;2023-12-20T04:49:49;3.15;;;0.68;;
56718;SDS011;42597;40.636;0.278;2023-12-20T04:52:15;2.08;;;0.88;;
56718;SDS011;42597;40.636;0.278;2023-12-20T04:54:41;2.58;;;0.95;;
56718;SDS011;42597;40.636;0.278;2023-12-20T04:57:06;1.33;;;0.82;;
56718;SDS011;42597;40.636;0.278;2023-12-20T04:59:32;6.18;;;1.45;;
56718;SDS011;42597;40.636;0.278;2023-12-20T05:01:57;0.88;;;0.70;;
56718;SDS011;42597;40.636;0.278;2023-12-20T05:04:23;2.05;;;0.88;;
56718;SDS011;42597;40.636;0.278;2023-12-20T05:06:49;1.33;;;0.68;;
56718;SDS011;42597;40.636;0.278;2023-12-20T05:09:15;1.30;;;0.63;;
56718;SDS011;42597;40.636;0.278;2023-12-20T05:11:41;1.48;;;0.70;;
56718;SDS011;42597;40.636;0.278;2023-12-20T05:14:06;1.95;;;0.93;;
56718;SDS011;42597;40.636;0.278;2023-12-20T05:16:32;0.88;;;0.70;;
56718;SDS011;42597;40.636;0.278;2023-12-20T05:18:58;1.52;;;0.63;;
56718;SDS011;42597;40.636;0.278;2023-12-20T05:21:26;2.60;;;0.88;;
56718;SDS011;42597;40.636;0.278;2023-12-20T05:23:51;1.38;;;0.68;;
56718;SDS011;42597;40.636;0.278;2023-12-20T05:26:17;1.30;;;0.70;;
56718;SDS011;42597;40.636;0.278;2023-12-20T05:28:43;0.68;;;0.65;;
56718;SDS011;42597;40.636;0.278;2023-12-20T05:31:09;1.95;;;0.85;;
56718;SDS011;42597;40.636;0.278;2023-12-20T05:33:35;0.93;;;0.50;;
56718;SDS011;42597;40.636;0.278;2023-12-20T05:36:00;2.17;;;0.55;;
56718;SDS011;42597;40.636;0.278;2023-12-20T05:38:26;4.75;;;0.68;;
56718;SDS011;42597;40.636;0.278;2023-12-20T05:40:51;0.63;;;0.50;;
56718;SDS011;42597;40.636;0.278;2023-12-20T05:43:17;5.18;;;0.90;;
56718;SDS011;42597;40.636;0.278;2023-12-20T05:45:42;2.03;;;0.63;;
56718;SDS011;42597;40.636;0.278;2023-12-20T05:48:08;3.25;;;0.80;;
56718;SDS011;42597;40.636;0.278;2023-12-20T05:50:34;0.40;;;0.40;;
56718;SDS011;42597;40.636;0.278;2023-12-20T05:53:00;0.50;;;0.50;;
56718;SDS011;42597;40.636;0.278;2023-12-20T05:55:25;0.82;;;0.50;;
56718;SDS011;42597;40.636;0.278;2023-12-20T05:57:51;1.98;;;1.17;;
56718;SDS011;42597;40.636;0.278;2023-12-20T06:00:17;1.00;;;0.60;;
56718;SDS011;42597;40.636;0.278;2023-12-20T06:02:43;1.02;;;0.60;;
56718;SDS011;42597;40.636;0.278;2023-12-20T06:05:09;0.95;;;0.70;;
56718;SDS011;42597;40.636;0.278;2023-12-20T06:07:34;0.80;;;0.65;;
56718;SDS011;42597;40.636;0.278;2023-12-20T06:10:00;0.60;;;0.50;;
56718;SDS011;42597;40.636;0.278;2023-12-20T06:12:25;0.65;;;0.47;;
56718;SDS011;42597;40.636;0.278;2023-12-20T06:14:53;1.45;;;0.63;;
56718;SDS011;42597;40.636;0.278;2023-12-20T06:17:18;0.65;;;0.43;;
56718;SDS011;42597;40.636;0.278;2023-12-20T06:19:44;1.23;;;0.60;;
56718;SDS011;42597;40.636;0.278;2023-12-20T06:22:13;4.35;;;2.00;;
56718;SDS011;42597;40.636;0.278;2023-12-20T06:24:39;6.40;;;2.83;;
56718;SDS011;42597;40.636;0.278;2023-12-20T06:27:05;7.68;;;2.80;;
56718;SDS011;42597;40.636;0.278;2023-12-20T06:29:30;3.50;;;1.33;;
56718;SDS011;42597;40.636;0.278;2023-12-20T06:31:56;3.33;;;0.90;;
56718;SDS011;42597;40.636;0.278;2023-12-20T06:34:21;5.40;;;2.63;;
56718;SDS011;42597;40.636;0.278;2023-12-20T06:36:47;4.32;;;1.48;;
56718;SDS011;42597;40.636;0.278;2023-12-20T06:39:15;1.77;;;0.90;;
56718;SDS011;42597;40.636;0.278;2023-12-20T06:41:40;2.08;;;1.13;;
56718;SDS011;42597;40.636;0.278;2023-12-20T06:44:07;1.77;;;1.10;;
56718;SDS011;42597;40.636;0.278;2023-12-20T06:46:33;1.52;;;0.70;;
56718;SDS011;42597;40.636;0.278;2023-12-20T06:48:59;2.22;;;1.20;;
56718;SDS011;42597;40.636;0.278;2023-12-20T06:51:24;0.40;;;0.40;;
56718;SDS011;42597;40.636;0.278;2023-12-20T06:53:51;0.38;;;0.38;;
56718;SDS011;42597;40.636;0.278;2023-12-20T06:56:17;2.75;;;0.93;;
56718;SDS011;42597;40.636;0.278;2023-12-20T06:58:43;1.35;;;0.77;;
56718;SDS011;42597;40.636;0.278;2023-12-20T07:01:12;1.10;;;0.75;;
56718;SDS011;42597;40.636;0.278;2023-12-20T07:03:38;1.05;;;0.70;;
56718;SDS011;42597;40.636;0.278;2023-12-20T07:06:04;0.98;;;0.73;;
56718;SDS011;42597;40.636;0.278;2023-12-20T07:08:30;0.50;;;0.47;;
56718;SDS011;42597;40.636;0.278;2023-12-20T07:10:55;1.30;;;0.50;;
56718;SDS011;42597;40.636;0.278;2023-12-20T07:13:21;1.25;;;0.60;;
56718;SDS011;42597;40.636;0.278;2023-12-20T07:15:47;0.43;;;0.43;;
56718;SDS011;42597;40.636;0.278;2023-12-20T07:18:13;2.60;;;0.77;;
56718;SDS011;42597;40.636;0.278;2023-12-20T07:20:39;0.68;;;0.60;;
56718;SDS011;42597;40.636;0.278;2023-12-20T07:23:05;2.72;;;1.42;;
56718;SDS011;42597;40.636;0.278;2023-12-20T07:25:30;3.28;;;1.42;;
56718;SDS011;42597;40.636;0.278;2023-12-20T07:27:58;2.20;;;1.20;;
56718;SDS011;42597;40.636;0.278;2023-12-20T07:30:24;2.50;;;0.75;;
56718;SDS011;42597;40.636;0.278;2023-12-20T07:32:50;1.35;;;0.90;;
56718;SDS011;42597;40.636;0.278;2023-12-20T07:35:15;0.50;;;0.50;;
56718;SDS011;42597;40.636;0.278;2023-12-20T07:37:41;1.10;;;0.95;;
56718;SDS011;42597;40.636;0.278;2023-12-20T07:40:07;1.98;;;1.25;;
56718;SDS011;42597;40.636;0.278;2023-12-20T07:42:33;1.75;;;0.95;;
56718;SDS011;42597;40.636;0.278;2023-12-20T07:44:59;0.73;;;0.50;;
56718;SDS011;42597;40.636;0.278;2023-12-20T07:47:24;3.58;;;1.42;;
56718;SDS011;42597;40.636;0.278;2023-12-20T07:49:50;4.78;;;2.30;;
56718;SDS011;42597;40.636;0.278;2023-12-20T07:52:19;10.25;;;4.40;;
56718;SDS011;42597;40.636;0.278;2023-12-20T07:54:45;3.28;;;1.00;;
56718;SDS011;42597;40.636;0.278;2023-12-20T07:57:11;1.17;;;0.93;;
56718;SDS011;42597;40.636;0.278;2023-12-20T07:59:37;5.88;;;1.30;;
56718;SDS011;42597;40.636;0.278;2023-12-20T08:02:03;1.13;;;1.00;;
56718;SDS011;42597;40.636;0.278;2023-12-20T08:04:28;1.55;;;0.77;;
56718;SDS011;42597;40.636;0.278;2023-12-20T08:06:54;1.40;;;1.00;;
56718;SDS011;42597;40.636;0.278;2023-12-20T08:09:20;0.60;;;0.60;;
56718;SDS011;42597;40.636;0.278;2023-12-20T08:11:48;0.50;;;0.50;;
56718;SDS011;42597;40.636;0.278;2023-12-20T08:14:14;0.52;;;0.50;;
56718;SDS011;42597;40.636;0.278;2023-12-20T08:16:40;2.70;;;0.90;;
56718;SDS011;42597;40.636;0.278;2023-12-20T08:19:06;3.97;;;1.00;;
56718;SDS011;42597;40.636;0.278;2023-12-20T08:21:32;3.53;;;1.23;;
56718;SDS011;42597;40.636;0.278;2023-12-20T08:23:57;1.10;;;0.60;;
56718;SDS011;42597;40.636;0.278;2023-12-20T08:26:23;1.58;;;0.90;;
56718;SDS011;42597;40.636;0.278;2023-12-20T08:28:49;5.25;;;1.75;;
56718;SDS011;42597;40.636;0.278;2023-12-20T08:31:15;2.63;;;1.27;;
56718;SDS011;42597;40.636;0.278;2023-12-20T08:33:43;2.75;;;1.30;;
56718;SDS011;42597;40.636;0.278;2023-12-20T08:36:10;2.78;;;1.15;;
56718;SDS011;42597;40.636;0.278;2023-12-20T08:38:36;5.82;;;3.00;;
56718;SDS011;42597;40.636;0.278;2023-12-20T08:41:01;12.07;;;4.45;;
56718;SDS011;42597;40.636;0.278;2023-12-20T08:43:28;7.38;;;3.33;;
56718;SDS011;42597;40.636;0.278;2023-12-20T08:45:54;8.05;;;3.53;;
56718;SDS011;42597;40.636;0.278;2023-12-20T08:48:19;11.57;;;4.20;;
56718;SDS011;42597;40.636;0.278;2023-12-20T08:50:45;6.63;;;2.15;;
56718;SDS011;42597;40.636;0.278;2023-12-20T08:53:11;11.63;;;5.80;;
56718;SDS011;42597;40.636;0.278;2023-12-20T08:55:36;7.50;;;2.72;;
56718;SDS011;42597;40.636;0.278;2023-12-20T08:58:02;7.47;;;2.92;;
56718;SDS011;42597;40.636;0.278;2023-12-20T09:00:28;10.57;;;6.25;;
56718;SDS011;42597;40.636;0.278;2023-12-20T09:02:54;10.98;;;4.57;;
56718;SDS011;42597;40.636;0.278;2023-12-20T09:05:20;9.02;;;4.10;;
56718;SDS011;42597;40.636;0.278;2023-12-20T09:07:46;5.75;;;3.13;;
56718;SDS011;42597;40.636;0.278;2023-12-20T09:10:11;5.13;;;1.48;;
56718;SDS011;42597;40.636;0.278;2023-12-20T09:12:37;12.52;;;8.00;;
56718;SDS011;42597;40.636;0.278;2023-12-20T09:15:06;8.98;;;4.80;;
56718;SDS011;42597;40.636;0.278;2023-12-20T09:17:31;6.40;;;2.95;;
56718;SDS011;42597;40.636;0.278;2023-12-20T09:19:57;8.93;;;4.35;;
56718;SDS011;42597;40.636;0.278;2023-12-20T09:22:25;17.13;;;9.75;;
56718;SDS011;42597;40.636;0.278;2023-12-20T09:24:50;9.20;;;4.60;;
56718;SDS011;42597;40.636;0.278;2023-12-20T09:27:17;4.00;;;1.73;;
56718;SDS011;42597;40.636;0.278;2023-12-20T09:29:42;6.03;;;3.17;;
56718;SDS011;42597;40.636;0.278;2023-12-20T09:32:08;9.50;;;3.83;;
56718;SDS011;42597;40.636;0.278;2023-12-20T09:34:33;10.32;;;4.72;;
56718;SDS011;42597;40.636;0.278;2023-12-20T09:36:59;6.28;;;2.00;;
56718;SDS011;42597;40.636;0.278;2023-12-20T09:39:25;6.97;;;2.78;;
56718;SDS011;42597;40.636;0.278;2023-12-20T09:41:59;8.95;;;4.68;;
56718;SDS011;42597;40.636;0.278;2023-12-20T09:44:27;8.02;;;3.75;;
56718;SDS011;42597;40.636;0.278;2023-12-20T09:46:54;6.53;;;3.22;;
56718;SDS011;42597;40.636;0.278;2023-12-20T09:49:21;9.98;;;3.08;;
56718;SDS011;42597;40.636;0.278;2023-12-20T09:51:47;5.78;;;1.55;;
56718;SDS011;42597;40.636;0.278;2023-12-20T09:54:16;9.02;;;3.28;;
56718;SDS011;42597;40.636;0.278;2023-12-20T09:56:42;4.88;;;1.92;;
56718;SDS011;42597;40.636;0.278;2023-12-20T09:59:08;8.70;;;4.13;;
56718;SDS011;42597;40.636;0.278;2023-12-20T10:01:34;6.75;;;3.35;;
56718;SDS011;42597;40.636;0.278;2023-12-20T10:04:01;4.65;;;2.10;;
56718;SDS011;42597;40.636;0.278;2023-12-20T10:06:34;7.10;;;3.25;;
56718;SDS011;42597;40.636;0.278;2023-12-20T10:09:01;3.45;;;1.83;;
56718;SDS011;42597;40.636;0.278;2023-12-20T10:11:26;5.38;;;2.53;;
56718;SDS011;42597;40.636;0.278;2023-12-20T10:13:58;4.97;;;2.22;;
56718;SDS011;42597;40.636;0.278;2023-12-20T10:16:28;5.25;;;2.20;;
56718;SDS011;42597;40.636;0.278;2023-12-20T10:18:54;4.43;;;1.73;;
56718;SDS011;42597;40.636;0.278;2023-12-20T10:21:20;4.70;;;1.60;;
56718;SDS011;42597;40.636;0.278;2023-12-20T10:23:46;4.00;;;1.73;;
56718;SDS011;42597;40.636;0.278;2023-12-20T10:26:21;1.98;;;1.13;;
56718;SDS011;42597;40.636;0.278;2023-12-20T10:28:55;2.17;;;1.30;;
56718;SDS011;42597;40.636;0.278;2023-12-20T10:33:55;2.97;;;1.25;;
56718;SDS011;42597;40.636;0.278;2023-12-20T10:36:22;6.40;;;1.90;;
56718;SDS011;42597;40.636;0.278;2023-12-20T10:38:49;4.97;;;2.00;;
56718;SDS011;42597;40.636;0.278;2023-12-20T10:41:17;3.63;;;1.73;;
56718;SDS011;42597;40.636;0.278;2023-12-20T10:43:51;4.40;;;2.28;;
56718;SDS011;42597;40.636;0.278;2023-12-20T10:46:17;2.90;;;1.60;;
56718;SDS011;42597;40.636;0.278;2023-12-20T10:48:45;3.55;;;1.85;;
56718;SDS011;42597;40.636;0.278;2023-12-20T10:51:11;3.65;;;1.50;;
56718;SDS011;42597;40.636;0.278;2023-12-20T10:53:42;4.65;;;1.88;;
56718;SDS011;42597;40.636;0.278;2023-12-20T10:56:08;3.80;;;2.03;;
56718;SDS011;42597;40.636;0.278;2023-12-20T10:58:41;4.03;;;1.50;;
56718;SDS011;42597;40.636;0.278;2023-12-20T11:01:12;4.70;;;1.83;;
56718;SDS011;42597;40.636;0.278;2023-12-20T11:03:39;3.75;;;1.35;;
56718;SDS011;42597;40.636;0.278;2023-12-20T11:14:26;1.40;;;0.90;;
56718;SDS011;42597;40.636;0.278;2023-12-20T11:17:09;1.75;;;1.30;;
56718;SDS011;42597;40.636;0.278;2023-12-20T11:22:17;3.78;;;1.88;;
56718;SDS011;42597;40.636;0.278;2023-12-20T11:24:44;3.72;;;1.30;;
56718;SDS011;42597;40.636;0.278;2023-12-20T11:27:12;6.55;;;1.42;;
56718;SDS011;42597;40.636;0.278;2023-12-20T11:29:38;1.85;;;1.13;;
56718;SDS011;42597;40.636;0.278;2023-12-20T11:34:50;3.85;;;1.67;;
56718;SDS011;42597;40.636;0.278;2023-12-20T11:37:16;3.20;;;1.38;;
56718;SDS011;42597;40.636;0.278;2023-12-20T11:39:44;4.05;;;1.38;;
56718;SDS011;42597;40.636;0.278;2023-12-20T11:42:10;3.53;;;1.27;;
56718;SDS011;42597;40.636;0.278;2023-12-20T11:44:36;6.10;;;1.33;;
56718;SDS011;42597;40.636;0.278;2023-12-20T11:47:02;3.53;;;1.40;;
56718;SDS011;42597;40.636;0.278;2023-12-20T11:49:29;1.00;;;0.90;;
56718;SDS011;42597;40.636;0.278;2023-12-20T11:51:56;3.92;;;2.35;;
56718;SDS011;42597;40.636;0.278;2023-12-20T11:54:22;4.32;;;1.70;;
56718;SDS011;42597;40.636;0.278;2023-12-20T11:56:48;8.45;;;1.75;;
56718;SDS011;42597;40.636;0.278;2023-12-20T11:59:14;3.60;;;1.40;;
56718;SDS011;42597;40.636;0.278;2023-12-20T12:01:47;3.38;;;1.83;;
56718;SDS011;42597;40.636;0.278;2023-12-20T12:04:14;5.30;;;1.38;;
56718;SDS011;42597;40.636;0.278;2023-12-20T12:06:40;1.60;;;0.90;;
56718;SDS011;42597;40.636;0.278;2023-12-20T12:09:06;3.65;;;1.38;;
56718;SDS011;42597;40.636;0.278;2023-12-20T12:11:32;3.55;;;1.55;;
56718;SDS011;42597;40.636;0.278;2023-12-20T12:13:58;5.28;;;3.05;;
56718;SDS011;42597;40.636;0.278;2023-12-20T12:16:23;1.30;;;1.20;;
56718;SDS011;42597;40.636;0.278;2023-12-20T12:18:56;4.80;;;2.03;;
56718;SDS011;42597;40.636;0.278;2023-12-20T12:21:22;2.88;;;1.33;;
56718;SDS011;42597;40.636;0.278;2023-12-20T12:23:48;7.78;;;2.28;;
56718;SDS011;42597;40.636;0.278;2023-12-20T12:26:14;12.50;;;3.15;;
56718;SDS011;42597;40.636;0.278;2023-12-20T12:28:40;10.18;;;1.75;;
56718;SDS011;42597;40.636;0.278;2023-12-20T12:33:40;3.97;;;1.20;;
56718;SDS011;42597;40.636;0.278;2023-12-20T12:36:06;3.60;;;2.15;;
56718;SDS011;42597;40.636;0.278;2023-12-20T12:38:33;13.38;;;1.83;;
56718;SDS011;42597;40.636;0.278;2023-12-20T12:40:59;3.40;;;1.77;;
56718;SDS011;42597;40.636;0.278;2023-12-20T12:43:25;5.93;;;1.58;;
56718;SDS011;42597;40.636;0.278;2023-12-20T12:45:51;3.80;;;1.58;;
56718;SDS011;42597;40.636;0.278;2023-12-20T12:48:17;6.90;;;2.65;;
56718;SDS011;42597;40.636;0.278;2023-12-20T12:50:42;5.97;;;1.90;;
56718;SDS011;42597;40.636;0.278;2023-12-20T12:53:08;7.55;;;1.73;;
56718;SDS011;42597;40.636;0.278;2023-12-20T12:55:34;6.60;;;1.80;;
56718;SDS011;42597;40.636;0.278;2023-12-20T12:58:01;3.22;;;1.13;;
56718;SDS011;42597;40.636;0.278;2023-12-20T13:00:27;16.05;;;2.35;;
56718;SDS011;42597;40.636;0.278;2023-12-20T13:02:53;7.43;;;2.72;;
56718;SDS011;42597;40.636;0.278;2023-12-20T13:05:18;4.13;;;1.20;;
56718;SDS011;42597;40.636;0.278;2023-12-20T13:07:44;14.00;;;3.47;;
56718;SDS011;42597;40.636;0.278;2023-12-20T13:10:11;12.63;;;2.22;;
56718;SDS011;42597;40.636;0.278;2023-12-20T13:12:36;10.13;;;2.78;;
56718;SDS011;42597;40.636;0.278;2023-12-20T13:15:02;14.52;;;2.10;;
56718;SDS011;42597;40.636;0.278;2023-12-20T13:17:31;13.73;;;2.60;;
56718;SDS011;42597;40.636;0.278;2023-12-20T13:19:56;30.27;;;5.47;;
56718;SDS011;42597;40.636;0.278;2023-12-20T13:22:22;20.27;;;3.45;;
56718;SDS011;42597;40.636;0.278;2023-12-20T13:24:48;11.05;;;2.15;;
56718;SDS011;42597;40.636;0.278;2023-12-20T13:27:14;22.17;;;2.40;;
56718;SDS011;42597;40.636;0.278;2023-12-20T13:29:39;10.25;;;1.73;;
56718;SDS011;42597;40.636;0.278;2023-12-20T13:32:05;8.88;;;2.78;;
56718;SDS011;42597;40.636;0.278;2023-12-20T13:34:31;11.68;;;2.05;;
56718;SDS011;42597;40.636;0.278;2023-12-20T13:36:57;5.80;;;1.52;;
56718;SDS011;42597;40.636;0.278;2023-12-20T13:39:23;3.75;;;1.02;;
56718;SDS011;42597;40.636;0.278;2023-12-20T13:41:48;9.43;;;1.48;;
56718;SDS011;42597;40.636;0.278;2023-12-20T13:44:14;3.05;;;1.67;;
56718;SDS011;42597;40.636;0.278;2023-12-20T13:46:40;6.63;;;1.75;;
56718;SDS011;42597;40.636;0.278;2023-12-20T13:49:06;11.80;;;3.83;;
56718;SDS011;42597;40.636;0.278;2023-12-20T13:51:32;3.80;;;1.65;;
56718;SDS011;42597;40.636;0.278;2023-12-20T13:53:57;8.45;;;3.15;;
56718;SDS011;42597;40.636;0.278;2023-12-20T13:56:24;8.98;;;2.45;;
56718;SDS011;42597;40.636;0.278;2023-12-20T13:58:50;8.07;;;1.70;;
56718;SDS011;42597;40.636;0.278;2023-12-20T14:01:15;6.90;;;1.90;;
56718;SDS011;42597;40.636;0.278;2023-12-20T14:03:41;5.88;;;1.65;;
56718;SDS011;42597;40.636;0.278;2023-12-20T14:06:07;15.80;;;1.80;;
56718;SDS011;42597;40.636;0.278;2023-12-20T14:08:33;8.00;;;1.80;;
56718;SDS011;42597;40.636;0.278;2023-12-20T14:10:59;8.77;;;2.88;;
56718;SDS011;42597;40.636;0.278;2023-12-20T14:13:26;16.52;;;3.35;;
56718;SDS011;42597;40.636;0.278;2023-12-20T14:15:51;20.88;;;4.03;;
56718;SDS011;42597;40.636;0.278;2023-12-20T14:18:19;2.38;;;1.30;;
56718;SDS011;42597;40.636;0.278;2023-12-20T14:20:44;9.05;;;2.28;;
56718;SDS011;42597;40.636;0.278;2023-12-20T14:23:12;3.40;;;1.40;;
56718;SDS011;42597;40.636;0.278;2023-12-20T14:25:40;4.13;;;1.30;;
56718;SDS011;42597;40.636;0.278;2023-12-20T14:28:06;5.30;;;1.70;;
56718;SDS011;42597;40.636;0.278;2023-12-20T14:30:32;8.05;;;2.60;;
56718;SDS011;42597;40.636;0.278;2023-12-20T14:32:57;11.00;;;2.83;;
56718;SDS011;42597;40.636;0.278;2023-12-20T14:35:23;6.78;;;1.70;;
56718;SDS011;42597;40.636;0.278;2023-12-20T14:37:49;3.95;;;1.20;;
56718;SDS011;42597;40.636;0.278;2023-12-20T14:40:15;5.47;;;1.88;;
56718;SDS011;42597;40.636;0.278;2023-12-20T14:42:44;5.40;;;1.48;;
56718;SDS011;42597;40.636;0.278;2023-12-20T14:45:11;2.95;;;1.48;;
56718;SDS011;42597;40.636;0.278;2023-12-20T14:47:38;10.88;;;2.40;;
56718;SDS011;42597;40.636;0.278;2023-12-20T14:50:04;7.70;;;2.15;;
56718;SDS011;42597;40.636;0.278;2023-12-20T14:52:31;6.95;;;2.13;;
56718;SDS011;42597;40.636;0.278;2023-12-20T14:54:58;4.75;;;1.45;;
56718;SDS011;42597;40.636;0.278;2023-12-20T14:57:24;2.63;;;1.63;;